Time;durP1;ratioP1;P1;durP2;ratioP2;P2;SDS_P1;SDS_P2;PMS_P1;PMS_P2;Temp;Humidity;BMP_temperature;BMP_pressure;BME280_temperature;BME280_humidity;BME280_pressure;Samples;Min_cycle;Max_cycle;Signal;HPM_P1;HPM_P2
2023/11/30 06:00:58;;;;;;;19.50;10.80;;;;;;;;;;5701959;23;20971;-73
2023/11/30 06:03:24;;;;;;;19.30;9.27;;;;;;;;;;4935782;29;20422;-70
2023/11/30 06:05:51;;;;;;;18.07;10.60;;;;;;;;;;4937130;29;20406;-72
2023/11/30 06:08:17;;;;;;;16.30;9.70;;;;;;;;;;4936834;29;20952;-71
2023/11/30 06:10:43;;;;;;;15.60;9.10;;;;;;;;;;4940716;29;20461;-71
2023/11/30 06:13:10;;;;;;;22.23;9.73;;;;;;;;;;4960318;23;20517;-74
2023/11/30 06:15:36;;;;;;;17.97;8.83;;;;;;;;;;4935341;29;20414;-74
2023/11/30 06:18:02;;;;;;;18.10;10.43;;;;;;;;;;4935157;29;20488;-75
2023/11/30 06:20:28;;;;;;;16.80;9.03;;;;;;;;;;4934964;29;20497;-74
2023/11/30 06:22:54;;;;;;;17.80;8.83;;;;;;;;;;4933657;29;20449;-74
2023/11/30 06:25:20;;;;;;;16.43;8.53;;;;;;;;;;4933972;29;20430;-73
2023/11/30 06:27:46;;;;;;;13.13;8.30;;;;;;;;;;4935205;29;20448;-73
2023/11/30 06:30:12;;;;;;;14.10;8.37;;;;;;;;;;4934020;29;20458;-75
2023/11/30 06:32:38;;;;;;;19.17;8.67;;;;;;;;;;4935257;29;20458;-75
2023/11/30 06:35:05;;;;;;;17.77;8.10;;;;;;;;;;4935045;29;20781;-74
2023/11/30 06:37:31;;;;;;;16.23;8.07;;;;;;;;;;4933754;29;20457;-76
2023/11/30 06:39:57;;;;;;;21.13;8.63;;;;;;;;;;4935769;29;20488;-76
2023/11/30 06:42:23;;;;;;;16.20;8.77;;;;;;;;;;4936009;29;20410;-76
2023/11/30 06:44:49;;;;;;;14.20;7.03;;;;;;;;;;4937473;29;20449;-74
2023/11/30 06:47:15;;;;;;;20.47;8.80;;;;;;;;;;4937950;29;20464;-74
2023/11/30 06:49:41;;;;;;;15.57;8.50;;;;;;;;;;4937585;29;20424;-75
2023/11/30 06:52:07;;;;;;;17.07;8.20;;;;;;;;;;4933848;29;20421;-75
2023/11/30 06:54:33;;;;;;;15.70;7.80;;;;;;;;;;4934783;29;20957;-74
2023/11/30 06:56:59;;;;;;;11.77;6.93;;;;;;;;;;4933632;29;20418;-74
2023/11/30 06:59:25;;;;;;;18.70;7.90;;;;;;;;;;4933614;29;20469;-74
2023/11/30 07:01:51;;;;;;;18.90;9.37;;;;;;;;;;4934966;29;20500;-74
2023/11/30 07:04:17;;;;;;;15.33;7.90;;;;;;;;;;4933248;29;20438;-75
2023/11/30 07:06:43;;;;;;;15.73;8.47;;;;;;;;;;4934809;29;20414;-74
2023/11/30 07:09:12;;;;;;;14.83;8.57;;;;;;;;;;4934590;29;20909;-75
2023/11/30 07:11:38;;;;;;;16.73;8.53;;;;;;;;;;4934568;29;20512;-75
2023/11/30 07:14:05;;;;;;;15.87;7.73;;;;;;;;;;4934630;29;20461;-75
2023/11/30 07:16:31;;;;;;;16.03;8.40;;;;;;;;;;4934683;29;20814;-73
2023/11/30 07:18:57;;;;;;;13.60;8.70;;;;;;;;;;4934451;29;20461;-73
2023/11/30 07:21:23;;;;;;;15.67;7.80;;;;;;;;;;4933258;29;20421;-73
2023/11/30 07:23:49;;;;;;;20.00;9.63;;;;;;;;;;4934564;29;20945;-74
2023/11/30 07:26:15;;;;;;;15.23;8.90;;;;;;;;;;4933542;29;20430;-74
2023/11/30 07:28:42;;;;;;;22.80;9.77;;;;;;;;;;4934316;29;20505;-74
2023/11/30 07:31:08;;;;;;;21.60;9.93;;;;;;;;;;4933272;29;20425;-76
2023/11/30 07:33:39;;;;;;;17.07;9.70;;;;;;;;;;4934558;29;20433;-76
2023/11/30 07:36:07;;;;;;;18.60;9.13;;;;;;;;;;4938217;29;20418;-74
2023/11/30 07:38:33;;;;;;;17.43;9.10;;;;;;;;;;4938178;29;20567;-75
2023/11/30 07:40:59;;;;;;;21.13;10.47;;;;;;;;;;4938480;29;20445;-75
2023/11/30 07:43:25;;;;;;;15.67;8.97;;;;;;;;;;4938416;29;20967;-75
2023/11/30 07:45:51;;;;;;;23.33;9.87;;;;;;;;;;4938678;29;20406;-74
2023/11/30 07:48:17;;;;;;;19.27;10.57;;;;;;;;;;4938555;29;20410;-75
2023/11/30 07:50:43;;;;;;;19.20;9.40;;;;;;;;;;4938660;29;20468;-75
2023/11/30 07:53:09;;;;;;;19.70;9.83;;;;;;;;;;4939433;29;20504;-76
2023/11/30 07:55:35;;;;;;;20.67;10.43;;;;;;;;;;4939318;29;20423;-75
2023/11/30 07:58:01;;;;;;;17.90;9.53;;;;;;;;;;4938870;29;20420;-74
2023/11/30 08:00:27;;;;;;;32.53;10.60;;;;;;;;;;4938800;29;20521;-75
2023/11/30 08:02:54;;;;;;;20.83;10.50;;;;;;;;;;4937434;29;20445;-75
2023/11/30 08:05:22;;;;;;;20.37;9.80;;;;;;;;;;4937197;29;20414;-77
2023/11/30 08:07:48;;;;;;;27.00;11.65;;;;;;;;;;4938325;29;20863;-79
2023/11/30 08:10:14;;;;;;;22.63;9.83;;;;;;;;;;4938033;29;20233;-77
2023/11/30 08:12:40;;;;;;;24.73;10.40;;;;;;;;;;4936735;29;20429;-79
2023/11/30 08:15:07;;;;;;;21.97;10.30;;;;;;;;;;4941141;29;20955;-79
2023/11/30 08:17:32;;;;;;;25.07;11.60;;;;;;;;;;4940014;29;20409;-81
2023/11/30 08:19:58;;;;;;;27.10;10.03;;;;;;;;;;4942658;29;20494;-82
2023/11/30 08:22:24;;;;;;;27.40;10.00;;;;;;;;;;4944239;29;20433;-80
2023/11/30 08:24:51;;;;;;;25.30;11.27;;;;;;;;;;4940697;29;20556;-80
2023/11/30 08:27:17;;;;;;;25.33;11.40;;;;;;;;;;4940637;29;20421;-80
2023/11/30 08:29:43;;;;;;;27.40;10.53;;;;;;;;;;4940313;29;20426;-81
2023/11/30 08:32:10;;;;;;;25.03;11.23;;;;;;;;;;4938625;29;20413;-79
2023/11/30 08:34:36;;;;;;;21.40;11.20;;;;;;;;;;4940238;29;20704;-80
2023/11/30 08:37:04;;;;;;;30.80;11.93;;;;;;;;;;4936407;29;20767;-78
2023/11/30 08:39:30;;;;;;;21.70;10.27;;;;;;;;;;4937926;29;20468;-79
2023/11/30 08:41:56;;;;;;;22.37;10.53;;;;;;;;;;4938187;29;20808;-80
2023/11/30 08:44:25;;;;;;;17.23;9.80;;;;;;;;;;4934795;29;20477;-77
2023/11/30 08:46:52;;;;;;;17.30;9.47;;;;;;;;;;4919446;29;20843;-76
2023/11/30 08:49:18;;;;;;;27.70;9.83;;;;;;;;;;4926180;29;20512;-78
2023/11/30 08:51:44;;;;;;;25.50;10.03;;;;;;;;;;4931059;29;20837;-77
2023/11/30 08:54:10;;;;;;;20.03;10.90;;;;;;;;;;4923492;29;20492;-78
2023/11/30 08:56:36;;;;;;;19.00;11.17;;;;;;;;;;4936127;29;20425;-78
2023/11/30 08:59:02;;;;;;;17.87;10.47;;;;;;;;;;4935593;29;20461;-77
2023/11/30 09:01:28;;;;;;;23.70;11.30;;;;;;;;;;4933911;29;20439;-78
2023/11/30 09:03:54;;;;;;;34.77;12.67;;;;;;;;;;4937462;29;20944;-77
2023/11/30 09:06:20;;;;;;;18.60;10.33;;;;;;;;;;4937261;29;20461;-76
2023/11/30 09:08:46;;;;;;;21.77;9.47;;;;;;;;;;4930714;29;20519;-78
2023/11/30 09:11:12;;;;;;;22.53;9.80;;;;;;;;;;4939074;29;20429;-76
2023/11/30 09:13:38;;;;;;;17.90;9.80;;;;;;;;;;4933797;29;20484;-76
2023/11/30 09:16:04;;;;;;;21.60;10.33;;;;;;;;;;4918078;29;20418;-76
2023/11/30 09:18:32;;;;;;;26.63;11.03;;;;;;;;;;4923037;29;20476;-75
2023/11/30 09:20:59;;;;;;;20.67;10.90;;;;;;;;;;4936308;29;20415;-77
2023/11/30 09:23:26;;;;;;;21.60;11.37;;;;;;;;;;4944166;29;20430;-75
2023/11/30 09:25:52;;;;;;;20.60;10.70;;;;;;;;;;4942582;29;20415;-76
2023/11/30 09:28:19;;;;;;;27.77;11.43;;;;;;;;;;4943830;29;20429;-76
2023/11/30 09:30:45;;;;;;;20.13;11.53;;;;;;;;;;4938635;29;20444;-76
2023/11/30 09:33:10;;;;;;;22.70;11.17;;;;;;;;;;4931709;29;20449;-76
2023/11/30 09:35:36;;;;;;;25.53;11.13;;;;;;;;;;4940546;29;20841;-76
2023/11/30 09:38:02;;;;;;;19.63;10.03;;;;;;;;;;4930678;29;20887;-76
2023/11/30 09:40:29;;;;;;;20.97;10.63;;;;;;;;;;4935370;29;20811;-75
2023/11/30 09:42:56;;;;;;;22.63;10.63;;;;;;;;;;4935810;29;20456;-76
2023/11/30 09:45:23;;;;;;;21.50;10.90;;;;;;;;;;4937599;29;20416;-76
2023/11/30 09:47:49;;;;;;;25.87;11.63;;;;;;;;;;4937270;29;20875;-76
2023/11/30 09:50:15;;;;;;;22.07;10.47;;;;;;;;;;4937016;29;20831;-77
2023/11/30 09:52:42;;;;;;;22.53;11.50;;;;;;;;;;4938608;29;20418;-77
2023/11/30 09:55:11;;;;;;;25.40;11.10;;;;;;;;;;4932590;29;20497;-76
2023/11/30 09:57:37;;;;;;;19.33;12.03;;;;;;;;;;4929900;29;20542;-77
2023/11/30 10:00:06;;;;;;;25.57;11.70;;;;;;;;;;4938425;29;20505;-75
2023/11/30 10:02:33;;;;;;;25.17;11.37;;;;;;;;;;4935658;29;20422;-76
2023/11/30 10:04:59;;;;;;;21.63;11.70;;;;;;;;;;4934258;29;20441;-75
2023/11/30 10:07:24;;;;;;;22.23;11.03;;;;;;;;;;4936040;29;20409;-75
2023/11/30 10:09:50;;;;;;;21.53;11.37;;;;;;;;;;4946429;29;20429;-75
2023/11/30 10:12:19;;;;;;;22.90;10.80;;;;;;;;;;4958157;29;20405;-75
2023/11/30 10:14:45;;;;;;;20.93;11.63;;;;;;;;;;4958028;29;20437;-75
2023/11/30 10:17:11;;;;;;;21.03;10.07;;;;;;;;;;4959067;29;20432;-74
2023/11/30 10:19:37;;;;;;;26.50;11.60;;;;;;;;;;4957088;28;20533;-74
2023/11/30 10:22:03;;;;;;;19.80;10.03;;;;;;;;;;4957879;29;20515;-77
2023/11/30 10:24:29;;;;;;;37.30;12.00;;;;;;;;;;4954489;29;20426;-76
2023/11/30 10:27:01;;;;;;;19.67;9.27;;;;;;;;;;4954875;29;20394;-73
2023/11/30 10:29:30;;;;;;;16.13;8.60;;;;;;;;;;4954210;29;20448;-73
2023/11/30 10:31:56;;;;;;;21.53;9.80;;;;;;;;;;4940915;29;20421;-75
2023/11/30 10:34:27;;;;;;;19.57;9.43;;;;;;;;;;4934966;29;20724;-72
2023/11/30 10:36:54;;;;;;;25.93;10.20;;;;;;;;;;4934432;29;20944;-72
2023/11/30 10:39:22;;;;;;;23.10;11.10;;;;;;;;;;4935501;29;20917;-80
2023/11/30 10:41:52;;;;;;;25.40;9.90;;;;;;;;;;4934937;29;20924;-74
2023/11/30 10:44:25;;;;;;;15.70;9.37;;;;;;;;;;4921525;29;20943;-74
2023/11/30 10:46:55;;;;;;;19.53;9.67;;;;;;;;;;4920780;29;20457;-73
2023/11/30 10:49:23;;;;;;;16.07;8.90;;;;;;;;;;4916535;29;20930;-75
2023/11/30 10:51:50;;;;;;;19.80;10.33;;;;;;;;;;4915675;29;20862;-75
2023/11/30 10:54:21;;;;;;;15.93;9.57;;;;;;;;;;4914491;29;20443;-75
2023/11/30 10:56:47;;;;;;;13.97;9.23;;;;;;;;;;4915696;29;20434;-75
2023/11/30 10:59:15;;;;;;;17.57;9.67;;;;;;;;;;4915306;29;20470;-75
2023/11/30 11:01:45;;;;;;;24.50;11.53;;;;;;;;;;4914338;29;20422;-76
2023/11/30 11:04:14;;;;;;;24.73;9.73;;;;;;;;;;4915615;29;20427;-75
2023/11/30 11:06:40;;;;;;;22.53;9.70;;;;;;;;;;4915544;29;20527;-75
2023/11/30 11:09:07;;;;;;;23.93;11.53;;;;;;;;;;4915402;29;20898;-75
2023/11/30 11:11:33;;;;;;;19.87;11.50;;;;;;;;;;4915567;29;20414;-76
2023/11/30 11:14:00;;;;;;;24.90;11.53;;;;;;;;;;4915868;29;20485;-76
2023/11/30 11:16:36;;;;;;;21.27;11.33;;;;;;;;;;4915742;29;20422;-76
2023/11/30 11:19:03;;;;;;;27.90;11.10;;;;;;;;;;4914341;29;21002;-75
2023/11/30 11:21:34;;;;;;;36.33;13.00;;;;;;;;;;4917534;29;20426;-75
2023/11/30 11:24:03;;;;;;;29.13;12.13;;;;;;;;;;4915722;29;20509;-75
2023/11/30 11:26:42;;;;;;;23.20;11.33;;;;;;;;;;4916634;29;20926;-76
2023/11/30 11:29:08;;;;;;;24.67;10.47;;;;;;;;;;4915623;29;20509;-76
2023/11/30 11:31:34;;;;;;;22.70;12.00;;;;;;;;;;4916325;29;20410;-75
2023/11/30 11:34:00;;;;;;;26.03;11.27;;;;;;;;;;4914277;29;20973;-75
2023/11/30 11:36:26;;;;;;;24.97;11.23;;;;;;;;;;4915704;29;20415;-75
2023/11/30 11:38:52;;;;;;;19.20;9.43;;;;;;;;;;4915391;29;20494;-75
2023/11/30 11:41:18;;;;;;;16.23;9.07;;;;;;;;;;4914074;29;20778;-75
2023/11/30 11:43:47;;;;;;;18.83;9.40;;;;;;;;;;4918757;29;20502;-75
2023/11/30 11:46:13;;;;;;;21.77;9.20;;;;;;;;;;4917058;29;20784;-74
2023/11/30 11:48:39;;;;;;;15.13;8.33;;;;;;;;;;4915259;29;20411;-75
2023/11/30 11:51:05;;;;;;;21.87;9.07;;;;;;;;;;4914168;29;20981;-75
2023/11/30 11:53:31;;;;;;;17.10;7.70;;;;;;;;;;4915077;29;20485;-76
2023/11/30 11:56:04;;;;;;;12.93;8.47;;;;;;;;;;4915011;29;20561;-74
2023/11/30 11:58:30;;;;;;;20.57;8.93;;;;;;;;;;4915542;29;20426;-75
2023/11/30 12:00:56;;;;;;;12.43;8.00;;;;;;;;;;4913814;29;20429;-75
2023/11/30 12:03:22;;;;;;;15.50;8.33;;;;;;;;;;4915151;29;20435;-75
2023/11/30 12:05:48;;;;;;;20.37;8.67;;;;;;;;;;4915057;29;20420;-74
2023/11/30 12:08:15;;;;;;;17.53;9.13;;;;;;;;;;4914887;29;20777;-75
2023/11/30 12:10:42;;;;;;;17.93;7.70;;;;;;;;;;4915269;29;20744;-75
2023/11/30 12:13:09;;;;;;;16.63;8.23;;;;;;;;;;4941062;23;20510;-74
2023/11/30 12:15:35;;;;;;;14.57;7.83;;;;;;;;;;4960267;29;20427;-76
2023/11/30 12:18:01;;;;;;;16.80;8.43;;;;;;;;;;4959149;29;20412;-75
2023/11/30 12:20:28;;;;;;;15.37;8.17;;;;;;;;;;4963115;28;20472;-74
2023/11/30 12:22:54;;;;;;;16.07;8.03;;;;;;;;;;4968957;29;20412;-75
2023/11/30 12:25:20;;;;;;;15.60;7.60;;;;;;;;;;4948329;29;20422;-73
2023/11/30 12:27:46;;;;;;;18.53;7.90;;;;;;;;;;4945729;29;20467;-74
2023/11/30 12:30:12;;;;;;;14.70;7.10;;;;;;;;;;4947176;29;20425;-75
2023/11/30 12:32:38;;;;;;;12.97;8.17;;;;;;;;;;4942962;29;20905;-76
2023/11/30 12:35:04;;;;;;;18.37;8.13;;;;;;;;;;4940526;29;20433;-76
2023/11/30 12:37:31;;;;;;;13.30;7.30;;;;;;;;;;4938641;29;20610;-76
2023/11/30 12:39:57;;;;;;;16.80;8.67;;;;;;;;;;4938386;29;20496;-75
2023/11/30 12:42:23;;;;;;;19.80;9.50;;;;;;;;;;4938468;29;20414;-76
2023/11/30 12:44:49;;;;;;;19.50;9.00;;;;;;;;;;4938706;29;20937;-74
2023/11/30 12:47:15;;;;;;;17.97;9.27;;;;;;;;;;4953364;29;20417;-75
2023/11/30 12:49:42;;;;;;;13.40;7.40;;;;;;;;;;4952961;29;20417;-75
2023/11/30 12:52:08;;;;;;;27.67;8.97;;;;;;;;;;4954010;29;20405;-74
2023/11/30 12:54:35;;;;;;;15.90;8.60;;;;;;;;;;4951302;29;20426;-76
2023/11/30 12:57:01;;;;;;;13.83;7.20;;;;;;;;;;4954481;29;20424;-73
2023/11/30 12:59:26;;;;;;;16.20;7.90;;;;;;;;;;4947619;29;20544;-75
2023/11/30 13:01:52;;;;;;;20.63;8.80;;;;;;;;;;4946783;29;20418;-75
2023/11/30 13:04:21;;;;;;;14.10;7.27;;;;;;;;;;4940129;29;20482;-74
2023/11/30 13:06:47;;;;;;;19.10;6.83;;;;;;;;;;4940543;29;20461;-75
2023/11/30 13:09:14;;;;;;;21.77;8.13;;;;;;;;;;4941458;29;20421;-76
2023/11/30 13:11:40;;;;;;;19.23;7.60;;;;;;;;;;4939776;29;20546;-76
2023/11/30 13:14:06;;;;;;;14.27;7.57;;;;;;;;;;4937737;29;20450;-75
2023/11/30 13:16:32;;;;;;;19.97;8.67;;;;;;;;;;4937837;29;20432;-75
2023/11/30 13:18:58;;;;;;;20.70;8.80;;;;;;;;;;4937894;29;20552;-74
2023/11/30 13:21:24;;;;;;;15.03;8.47;;;;;;;;;;4937715;29;20418;-75
2023/11/30 13:23:52;;;;;;;22.73;10.37;;;;;;;;;;4936572;29;20441;-76
2023/11/30 13:26:21;;;;;;;20.13;9.20;;;;;;;;;;4937408;29;20448;-74
2023/11/30 13:28:47;;;;;;;18.27;9.17;;;;;;;;;;4937036;29;20442;-74
2023/11/30 13:31:14;;;;;;;18.27;9.07;;;;;;;;;;4936277;29;20426;-75
2023/11/30 13:33:40;;;;;;;29.63;10.33;;;;;;;;;;4937801;29;20496;-76
2023/11/30 13:36:06;;;;;;;20.83;11.00;;;;;;;;;;4936270;29;20450;-76
2023/11/30 13:38:33;;;;;;;24.07;10.50;;;;;;;;;;4937022;29;20457;-76
2023/11/30 13:40:58;;;;;;;18.57;9.70;;;;;;;;;;4937886;29;20410;-74
2023/11/30 13:43:25;;;;;;;21.40;9.33;;;;;;;;;;4937416;29;20793;-75
2023/11/30 13:45:51;;;;;;;18.47;8.50;;;;;;;;;;4937494;29;20493;-75
2023/11/30 13:48:17;;;;;;;16.13;8.30;;;;;;;;;;4936420;29;20418;-75
2023/11/30 13:50:47;;;;;;;17.87;9.60;;;;;;;;;;4936910;29;20421;-75
2023/11/30 13:53:17;;;;;;;18.67;9.50;;;;;;;;;;4937057;29;20414;-75
2023/11/30 13:55:43;;;;;;;20.23;8.93;;;;;;;;;;4936905;29;20402;-76
2023/11/30 13:58:09;;;;;;;18.57;9.27;;;;;;;;;;4944737;29;20414;-75
2023/11/30 14:00:36;;;;;;;16.50;9.67;;;;;;;;;;4952562;29;20470;-76
2023/11/30 14:03:02;;;;;;;14.97;8.80;;;;;;;;;;4952936;29;20482;-76
2023/11/30 14:05:28;;;;;;;17.33;9.13;;;;;;;;;;4954892;29;20406;-75
2023/11/30 14:07:55;;;;;;;18.33;9.57;;;;;;;;;;4951969;29;20420;-75
2023/11/30 14:10:21;;;;;;;15.57;9.37;;;;;;;;;;4953314;29;20484;-75
2023/11/30 14:12:47;;;;;;;20.87;11.50;;;;;;;;;;4942786;29;20418;-75
2023/11/30 14:15:13;;;;;;;20.53;11.03;;;;;;;;;;4942858;29;20477;-75
2023/11/30 14:17:39;;;;;;;16.13;9.60;;;;;;;;;;4941496;29;20456;-75
2023/11/30 14:20:06;;;;;;;17.53;9.50;;;;;;;;;;4938888;29;20492;-75
2023/11/30 14:22:32;;;;;;;23.27;10.40;;;;;;;;;;4938304;29;20904;-76
2023/11/30 14:24:58;;;;;;;17.20;9.30;;;;;;;;;;4936863;29;20469;-75
2023/11/30 14:27:26;;;;;;;18.00;9.30;;;;;;;;;;4936232;29;20492;-75
2023/11/30 14:29:52;;;;;;;16.00;9.70;;;;;;;;;;4934927;29;20573;-75
2023/11/30 14:32:19;;;;;;;21.40;8.90;;;;;;;;;;4936395;29;20485;-75
2023/11/30 14:34:46;;;;;;;17.90;8.57;;;;;;;;;;4937067;29;20430;-74
2023/11/30 14:37:14;;;;;;;18.83;10.03;;;;;;;;;;4936454;29;20928;-74
2023/11/30 14:39:41;;;;;;;22.97;11.37;;;;;;;;;;4936439;29;20472;-74
2023/11/30 14:42:08;;;;;;;33.17;9.57;;;;;;;;;;4936073;29;20441;-75
2023/11/30 14:44:34;;;;;;;24.77;9.87;;;;;;;;;;4935936;29;20429;-75
2023/11/30 14:47:02;;;;;;;17.70;9.17;;;;;;;;;;4935838;29;20462;-75
2023/11/30 14:49:28;;;;;;;16.40;9.80;;;;;;;;;;4934653;29;20433;-74
2023/11/30 14:51:54;;;;;;;17.17;9.67;;;;;;;;;;4935837;29;20785;-73
2023/11/30 14:54:20;;;;;;;21.00;10.33;;;;;;;;;;4934605;29;20955;-75
2023/11/30 14:56:46;;;;;;;17.07;9.30;;;;;;;;;;4934592;29;20518;-75
2023/11/30 14:59:12;;;;;;;16.57;9.90;;;;;;;;;;4935633;29;20465;-75
2023/11/30 15:01:38;;;;;;;27.57;9.37;;;;;;;;;;4935192;29;20425;-75
2023/11/30 15:04:05;;;;;;;19.63;9.17;;;;;;;;;;4936411;29;20505;-74
2023/11/30 15:06:31;;;;;;;21.03;9.93;;;;;;;;;;4936064;29;20500;-74
2023/11/30 15:08:57;;;;;;;17.90;10.07;;;;;;;;;;4934458;29;20452;-74
2023/11/30 15:11:23;;;;;;;20.53;9.70;;;;;;;;;;4934267;29;20453;-73
2023/11/30 15:13:49;;;;;;;17.10;9.63;;;;;;;;;;4935920;29;20461;-77
2023/11/30 15:16:15;;;;;;;21.00;10.30;;;;;;;;;;4934830;29;20430;-76
2023/11/30 15:18:41;;;;;;;21.23;9.90;;;;;;;;;;4943403;29;20493;-75
2023/11/30 15:21:07;;;;;;;23.97;10.90;;;;;;;;;;4950425;29;20549;-74
2023/11/30 15:23:34;;;;;;;24.40;12.40;;;;;;;;;;4950037;29;21057;-74
2023/11/30 15:26:00;;;;;;;20.10;11.57;;;;;;;;;;4949730;29;20410;-73
2023/11/30 15:28:26;;;;;;;21.80;11.13;;;;;;;;;;4948647;29;20418;-76
2023/11/30 15:30:52;;;;;;;23.70;10.67;;;;;;;;;;4944706;29;20934;-77
2023/11/30 15:33:18;;;;;;;17.83;10.07;;;;;;;;;;4941095;29;20517;-75
2023/11/30 15:35:44;;;;;;;22.50;9.93;;;;;;;;;;4939279;29;20893;-77
2023/11/30 15:38:10;;;;;;;22.47;10.60;;;;;;;;;;4938274;29;20453;-76
2023/11/30 15:40:36;;;;;;;18.70;10.57;;;;;;;;;;4938108;29;20465;-76
2023/11/30 15:43:02;;;;;;;29.13;12.40;;;;;;;;;;4937413;29;20421;-75
2023/11/30 15:45:28;;;;;;;18.00;10.50;;;;;;;;;;4936266;29;20441;-76
2023/11/30 15:47:54;;;;;;;18.50;11.10;;;;;;;;;;4937089;29;20417;-75
2023/11/30 15:50:20;;;;;;;24.23;10.30;;;;;;;;;;4937544;29;20436;-77
2023/11/30 15:52:46;;;;;;;18.43;10.40;;;;;;;;;;4937557;29;20421;-77
2023/11/30 15:55:13;;;;;;;17.20;10.20;;;;;;;;;;4938252;29;20444;-75
2023/11/30 15:57:39;;;;;;;21.90;9.87;;;;;;;;;;4944042;29;20412;-75
2023/11/30 16:00:07;;;;;;;18.83;10.17;;;;;;;;;;4943327;29;20496;-74
2023/11/30 16:02:33;;;;;;;26.40;10.97;;;;;;;;;;4940324;29;20428;-75
2023/11/30 16:04:59;;;;;;;22.07;10.40;;;;;;;;;;4939053;29;20449;-76
2023/11/30 16:07:25;;;;;;;23.20;9.97;;;;;;;;;;4938462;29;20421;-77
2023/11/30 16:09:51;;;;;;;27.93;10.37;;;;;;;;;;4940185;29;20418;-75
2023/11/30 16:12:16;;;;;;;25.00;11.70;;;;;;;;;;4942269;29;20424;-75
2023/11/30 16:14:42;;;;;;;22.37;10.30;;;;;;;;;;4940109;29;20513;-76
2023/11/30 16:17:08;;;;;;;24.93;10.00;;;;;;;;;;4943507;29;20425;-77
2023/11/30 16:19:35;;;;;;;18.53;10.87;;;;;;;;;;4942533;29;20461;-78
2023/11/30 16:22:02;;;;;;;20.63;11.53;;;;;;;;;;4942469;29;20449;-73
2023/11/30 16:24:28;;;;;;;27.67;11.10;;;;;;;;;;4940845;29;20429;-74
2023/11/30 16:26:56;;;;;;;22.17;11.13;;;;;;;;;;4944892;29;20468;-75
2023/11/30 16:29:22;;;;;;;19.73;10.87;;;;;;;;;;4939827;29;20439;-75
2023/11/30 16:31:49;;;;;;;24.10;11.40;;;;;;;;;;4940244;29;20424;-75
2023/11/30 16:34:18;;;;;;;23.30;10.60;;;;;;;;;;4939491;29;20452;-75
2023/11/30 16:36:44;;;;;;;20.50;10.80;;;;;;;;;;4939943;29;20873;-74
2023/11/30 16:39:12;;;;;;;22.93;11.13;;;;;;;;;;4939900;29;20465;-74
2023/11/30 16:41:39;;;;;;;20.07;10.40;;;;;;;;;;4939465;29;20968;-75
2023/11/30 16:44:04;;;;;;;20.60;11.03;;;;;;;;;;4940283;29;20547;-75
2023/11/30 16:46:31;;;;;;;18.30;11.33;;;;;;;;;;4939520;29;20406;-74
2023/11/30 16:48:57;;;;;;;25.40;12.83;;;;;;;;;;4939428;29;20417;-75
2023/11/30 16:51:24;;;;;;;26.43;11.73;;;;;;;;;;4939002;29;20425;-73
2023/11/30 16:53:50;;;;;;;18.27;10.97;;;;;;;;;;4943819;29;20440;-74
2023/11/30 16:56:16;;;;;;;23.10;11.37;;;;;;;;;;4939760;29;20425;-75
2023/11/30 16:58:42;;;;;;;19.13;11.00;;;;;;;;;;4938640;29;20520;-73
2023/11/30 17:01:09;;;;;;;25.23;11.90;;;;;;;;;;4936958;29;20437;-76
2023/11/30 17:03:35;;;;;;;28.93;14.40;;;;;;;;;;4938051;29;20816;-74
2023/11/30 17:06:01;;;;;;;25.17;11.67;;;;;;;;;;4931175;29;20449;-76
2023/11/30 17:08:27;;;;;;;24.80;11.90;;;;;;;;;;4942000;29;20485;-76
2023/11/30 17:10:54;;;;;;;21.93;11.23;;;;;;;;;;4943186;29;20505;-77
2023/11/30 17:13:20;;;;;;;20.57;11.00;;;;;;;;;;4928457;29;20451;-78
2023/11/30 17:15:47;;;;;;;25.83;12.10;;;;;;;;;;4926332;29;20411;-77
2023/11/30 17:18:13;;;;;;;25.63;11.20;;;;;;;;;;4943374;29;20465;-79
2023/11/30 17:20:39;;;;;;;21.60;10.70;;;;;;;;;;4940249;29;20469;-78
2023/11/30 17:23:05;;;;;;;23.07;11.23;;;;;;;;;;4934398;29;20463;-79
2023/11/30 17:25:31;;;;;;;23.90;12.17;;;;;;;;;;4920098;29;20419;-77
2023/11/30 17:27:58;;;;;;;20.70;11.00;;;;;;;;;;4937480;29;20504;-75
2023/11/30 17:30:24;;;;;;;21.90;11.40;;;;;;;;;;4927383;29;20442;-77
2023/11/30 17:32:50;;;;;;;29.73;12.97;;;;;;;;;;4918995;29;20427;-74
2023/11/30 17:35:17;;;;;;;27.87;12.60;;;;;;;;;;4918899;29;20443;-74
2023/11/30 17:37:43;;;;;;;26.60;12.03;;;;;;;;;;4919421;29;20425;-73
2023/11/30 17:40:10;;;;;;;23.77;11.70;;;;;;;;;;4936470;29;20889;-75
2023/11/30 17:42:37;;;;;;;24.50;12.23;;;;;;;;;;4937553;29;20461;-77
2023/11/30 17:45:04;;;;;;;29.60;11.27;;;;;;;;;;4938487;29;20976;-77
2023/11/30 17:47:30;;;;;;;23.70;12.00;;;;;;;;;;4940862;29;20468;-78
2023/11/30 17:49:56;;;;;;;27.80;13.70;;;;;;;;;;4938693;29;20513;-77
2023/11/30 17:52:22;;;;;;;21.03;11.43;;;;;;;;;;4937872;29;20952;-78
2023/11/30 17:54:49;;;;;;;21.87;11.20;;;;;;;;;;4940708;29;20452;-76
2023/11/30 17:57:15;;;;;;;26.30;13.30;;;;;;;;;;4937843;29;20437;-77
2023/11/30 17:59:41;;;;;;;28.23;13.77;;;;;;;;;;4931977;29;20462;-78
2023/11/30 18:02:07;;;;;;;22.83;11.30;;;;;;;;;;4933982;29;20941;-79
2023/11/30 18:04:32;;;;;;;23.40;12.70;;;;;;;;;;4937871;29;20814;-78
2023/11/30 18:06:58;;;;;;;24.20;12.63;;;;;;;;;;4939211;29;20484;-78
2023/11/30 18:09:24;;;;;;;27.77;11.70;;;;;;;;;;4941908;29;20513;-76
2023/11/30 18:11:50;;;;;;;21.30;11.40;;;;;;;;;;4918354;29;20474;-76
2023/11/30 18:14:18;;;;;;;25.23;11.00;;;;;;;;;;4947528;23;20501;-71
2023/11/30 18:16:43;;;;;;;26.67;13.60;;;;;;;;;;4932902;29;20414;-72
2023/11/30 18:19:11;;;;;;;29.60;13.33;;;;;;;;;;4934894;29;20479;-71
2023/11/30 18:21:37;;;;;;;28.20;13.50;;;;;;;;;;4934916;29;20426;-70
2023/11/30 18:24:03;;;;;;;25.17;12.73;;;;;;;;;;4934461;29;20795;-71
2023/11/30 18:26:29;;;;;;;31.80;13.60;;;;;;;;;;4934477;29;20406;-73
2023/11/30 18:28:55;;;;;;;24.63;13.00;;;;;;;;;;4935718;29;20904;-73
2023/11/30 18:31:22;;;;;;;22.90;13.50;;;;;;;;;;4935423;29;20501;-73
2023/11/30 18:33:48;;;;;;;32.20;14.03;;;;;;;;;;4932664;29;20490;-73
2023/11/30 18:36:14;;;;;;;25.03;12.23;;;;;;;;;;4935358;29;20457;-73
2023/11/30 18:38:40;;;;;;;28.93;14.27;;;;;;;;;;4935263;29;20425;-73
2023/11/30 18:41:06;;;;;;;29.93;14.60;;;;;;;;;;4935031;29;20426;-73
2023/11/30 18:43:32;;;;;;;26.33;13.17;;;;;;;;;;4933727;29;20433;-73
2023/11/30 18:45:59;;;;;;;26.10;13.07;;;;;;;;;;4935233;29;20433;-73
2023/11/30 18:48:24;;;;;;;25.20;14.13;;;;;;;;;;4935110;29;20418;-73
2023/11/30 18:50:50;;;;;;;28.87;14.40;;;;;;;;;;4935247;29;20432;-73
2023/11/30 18:53:18;;;;;;;27.60;12.90;;;;;;;;;;4935165;29;20414;-73
2023/11/30 18:55:44;;;;;;;29.83;13.83;;;;;;;;;;4927344;29;20786;-73
2023/11/30 18:58:12;;;;;;;31.97;16.27;;;;;;;;;;4925348;29;20457;-74
2023/11/30 19:00:38;;;;;;;31.67;14.73;;;;;;;;;;4935073;29;20471;-73
2023/11/30 19:03:04;;;;;;;33.60;14.67;;;;;;;;;;4918877;29;20431;-73
2023/11/30 19:05:30;;;;;;;27.20;13.90;;;;;;;;;;4927269;29;20488;-73
2023/11/30 19:07:56;;;;;;;26.13;13.27;;;;;;;;;;4934644;29;20413;-73
2023/11/30 19:10:21;;;;;;;25.87;14.10;;;;;;;;;;4934886;29;20417;-73
2023/11/30 19:12:47;;;;;;;30.50;14.77;;;;;;;;;;4934798;29;20572;-73
2023/11/30 19:15:14;;;;;;;24.20;13.17;;;;;;;;;;4925296;29;20462;-73
2023/11/30 19:17:41;;;;;;;30.40;14.03;;;;;;;;;;4915997;29;20429;-73
2023/11/30 19:20:07;;;;;;;24.37;13.20;;;;;;;;;;4916050;29;20841;-73
2023/11/30 19:22:33;;;;;;;30.00;15.30;;;;;;;;;;4922383;29;20444;-73
2023/11/30 19:24:59;;;;;;;24.67;12.07;;;;;;;;;;4934713;29;20941;-73
2023/11/30 19:27:25;;;;;;;27.23;12.47;;;;;;;;;;4932898;29;20421;-74
2023/11/30 19:29:51;;;;;;;25.90;13.57;;;;;;;;;;4933798;29;20405;-73
2023/11/30 19:32:17;;;;;;;21.50;12.40;;;;;;;;;;4934695;29;20428;-73
2023/11/30 19:34:43;;;;;;;31.60;13.93;;;;;;;;;;4934751;29;20469;-73
2023/11/30 19:37:09;;;;;;;24.23;13.20;;;;;;;;;;4935162;29;20421;-73
2023/11/30 19:39:35;;;;;;;27.07;14.00;;;;;;;;;;4920755;29;20953;-73
2023/11/30 19:42:01;;;;;;;24.53;13.07;;;;;;;;;;4914931;29;20430;-73
2023/11/30 19:44:27;;;;;;;27.30;13.33;;;;;;;;;;4927128;29;20496;-73
2023/11/30 19:46:53;;;;;;;28.70;14.93;;;;;;;;;;4936574;29;20452;-73
2023/11/30 19:49:19;;;;;;;23.33;12.67;;;;;;;;;;4945273;29;20413;-73
2023/11/30 19:51:45;;;;;;;26.97;13.60;;;;;;;;;;4944648;29;20413;-73
2023/11/30 19:54:11;;;;;;;26.17;12.30;;;;;;;;;;4943794;29;20433;-73
2023/11/30 19:56:39;;;;;;;20.00;11.87;;;;;;;;;;4944768;29;20406;-73
2023/11/30 19:59:05;;;;;;;28.90;14.03;;;;;;;;;;4939193;29;20633;-73
2023/11/30 20:01:31;;;;;;;25.43;12.60;;;;;;;;;;4929035;29;20521;-73
2023/11/30 20:03:57;;;;;;;25.40;14.67;;;;;;;;;;4934551;29;20457;-73
2023/11/30 20:06:23;;;;;;;28.00;13.57;;;;;;;;;;4934441;29;20414;-72
2023/11/30 20:08:49;;;;;;;27.10;12.43;;;;;;;;;;4934083;29;20452;-73
2023/11/30 20:11:15;;;;;;;32.67;13.33;;;;;;;;;;4934384;29;20414;-74
2023/11/30 20:13:42;;;;;;;31.17;16.00;;;;;;;;;;4934134;29;20809;-72
2023/11/30 20:16:10;;;;;;;31.40;14.80;;;;;;;;;;4933088;29;20421;-73
2023/11/30 20:18:37;;;;;;;24.33;13.13;;;;;;;;;;4933736;29;20420;-73